sensor_id;sensor_type;location;lat;lon;timestamp;pressure;altitude;pressure_sealevel;temperature;humidity
10060;BME280;5069;49.306;8.636;2023-03-16T00:01:11;101024.94;;;2.68;100.00
10060;BME280;5069;49.306;8.636;2023-03-16T00:04:12;101020.63;;;2.71;100.00
10060;BME280;5069;49.306;8.636;2023-03-16T00:07:14;101015.47;;;2.77;100.00
10060;BME280;5069;49.306;8.636;2023-03-16T00:10:15;101025.00;;;2.75;100.00
10060;BME280;5069;49.306;8.636;2023-03-16T00:13:19;101016.34;;;2.78;100.00
10060;BME280;5069;49.306;8.636;2023-03-16T00:16:23;101011.19;;;2.82;100.00
10060;BME280;5069;49.306;8.636;2023-03-16T00:19:25;101022.47;;;2.83;100.00
10060;BME280;5069;49.306;8.636;2023-03-16T00:22:28;101019.88;;;2.86;100.00
10060;BME280;5069;49.306;8.636;2023-03-16T00:25:30;101026.81;;;2.85;100.00
10060;BME280;5069;49.306;8.636;2023-03-16T00:28:34;101025.97;;;2.86;100.00
10060;BME280;5069;49.306;8.636;2023-03-16T00:31:38;101013.78;;;2.85;100.00
10060;BME280;5069;49.306;8.636;2023-03-16T00:34:40;101019.03;;;2.88;100.00
10060;BME280;5069;49.306;8.636;2023-03-16T00:37:41;101024.28;;;2.90;100.00
10060;BME280;5069;49.306;8.636;2023-03-16T00:40:44;101021.66;;;2.93;100.00
10060;BME280;5069;49.306;8.636;2023-03-16T00:43:46;101022.56;;;2.97;100.00
10060;BME280;5069;49.306;8.636;2023-03-16T00:46:49;101028.56;;;2.86;100.00
10060;BME280;5069;49.306;8.636;2023-03-16T00:49:50;101023.31;;;2.82;100.00
10060;BME280;5069;49.306;8.636;2023-03-16T00:52:52;101013.78;;;2.85;100.00
10060;BME280;5069;49.306;8.636;2023-03-16T00:55:53;101013.78;;;2.85;100.00
10060;BME280;5069;49.306;8.636;2023-03-16T00:58:55;101008.47;;;2.70;100.00
10060;BME280;5069;49.306;8.636;2023-03-16T01:01:58;100995.34;;;2.58;100.00
10060;BME280;5069;49.306;8.636;2023-03-16T01:04:59;101004.03;;;2.59;100.00
10060;BME280;5069;49.306;8.636;2023-03-16T01:08:02;101004.03;;;2.57;100.00
10060;BME280;5069;49.306;8.636;2023-03-16T01:11:06;101002.38;;;2.68;100.00
10060;BME280;5069;49.306;8.636;2023-03-16T01:14:08;101005.00;;;2.67;100.00
10060;BME280;5069;49.306;8.636;2023-03-16T01:17:10;100999.72;;;2.62;100.00
10060;BME280;5069;49.306;8.636;2023-03-16T01:20:14;100996.31;;;2.66;100.00
10060;BME280;5069;49.306;8.636;2023-03-16T01:23:20;100990.22;;;2.66;100.00
10060;BME280;5069;49.306;8.636;2023-03-16T01:26:21;100984.19;;;2.71;100.00
10060;BME280;5069;49.306;8.636;2023-03-16T01:29:25;100983.28;;;2.68;100.00
10060;BME280;5069;49.306;8.636;2023-03-16T01:32:29;100985.06;;;2.72;100.00
10060;BME280;5069;49.306;8.636;2023-03-16T01:35:30;100968.53;;;2.68;100.00
10060;BME280;5069;49.306;8.636;2023-03-16T01:38:32;100981.63;;;2.73;100.00
10060;BME280;5069;49.306;8.636;2023-03-16T01:41:34;100985.91;;;2.66;100.00
10060;BME280;5069;49.306;8.636;2023-03-16T01:44:56;100983.28;;;2.66;100.00
10060;BME280;5069;49.306;8.636;2023-03-16T01:48:06;100985.03;;;2.70;100.00
10060;BME280;5069;49.306;8.636;2023-03-16T01:51:14;100985.03;;;2.70;100.00
10060;BME280;5069;49.306;8.636;2023-03-16T01:57:45;100974.63;;;2.70;100.00
10060;BME280;5069;49.306;8.636;2023-03-16T02:00:47;100971.19;;;2.71;100.00
10060;BME280;5069;49.306;8.636;2023-03-16T02:03:57;100968.53;;;2.68;100.00
10060;BME280;5069;49.306;8.636;2023-03-16T02:07:04;100965.94;;;2.67;100.00
10060;BME280;5069;49.306;8.636;2023-03-16T02:10:08;100958.13;;;2.68;100.00
10060;BME280;5069;49.306;8.636;2023-03-16T02:13:11;100956.41;;;2.67;100.00
10060;BME280;5069;49.306;8.636;2023-03-16T02:16:13;100957.28;;;2.74;100.00
10060;BME280;5069;49.306;8.636;2023-03-16T02:19:33;100939.91;;;2.68;100.00
10060;BME280;5069;49.306;8.636;2023-03-16T02:22:44;100937.25;;;2.62;100.00
10060;BME280;5069;49.306;8.636;2023-03-16T02:32:43;100938.13;;;2.63;100.00
10060;BME280;5069;49.306;8.636;2023-03-16T02:35:46;100937.22;;;2.58;100.00
10060;BME280;5069;49.306;8.636;2023-03-16T02:38:47;100944.16;;;2.54;100.00
10060;BME280;5069;49.306;8.636;2023-03-16T02:41:51;100933.72;;;2.49;100.00
10060;BME280;5069;49.306;8.636;2023-03-16T02:44:57;100940.56;;;2.38;100.00
10060;BME280;5069;49.306;8.636;2023-03-16T02:48:07;100933.53;;;2.30;100.00
10060;BME280;5069;49.306;8.636;2023-03-16T02:51:10;100922.28;;;2.31;100.00
10060;BME280;5069;49.306;8.636;2023-03-16T02:54:11;100927.47;;;2.31;100.00
10060;BME280;5069;49.306;8.636;2023-03-16T02:57:14;100929.19;;;2.29;100.00
10060;BME280;5069;49.306;8.636;2023-03-16T03:00:16;100920.53;;;2.30;100.00
10060;BME280;5069;49.306;8.636;2023-03-16T03:03:22;100923.97;;;2.29;100.00
10060;BME280;5069;49.306;8.636;2023-03-16T03:06:24;100922.28;;;2.31;100.00
10060;BME280;5069;49.306;8.636;2023-03-16T03:09:26;100914.41;;;2.22;100.00
10060;BME280;5069;49.306;8.636;2023-03-16T03:12:27;100912.72;;;2.30;100.00
10060;BME280;5069;49.306;8.636;2023-03-16T03:15:29;100910.06;;;2.24;100.00
10060;BME280;5069;49.306;8.636;2023-03-16T03:18:38;100910.88;;;2.17;100.00
10060;BME280;5069;49.306;8.636;2023-03-16T03:21:40;100890.97;;;2.20;100.00
10060;BME280;5069;49.306;8.636;2023-03-16T03:24:42;100897.06;;;2.24;100.00
10060;BME280;5069;49.306;8.636;2023-03-16T03:27:45;100901.41;;;2.25;100.00
10060;BME280;5069;49.306;8.636;2023-03-16T03:30:49;100900.53;;;2.21;100.00
10060;BME280;5069;49.306;8.636;2023-03-16T03:33:51;100897.88;;;2.18;100.00
10060;BME280;5069;49.306;8.636;2023-03-16T03:36:55;100898.81;;;2.22;100.00
10060;BME280;5069;49.306;8.636;2023-03-16T03:39:56;100912.66;;;2.21;100.00
10060;BME280;5069;49.306;8.636;2023-03-16T03:42:59;100909.06;;;2.06;100.00
10060;BME280;5069;49.306;8.636;2023-03-16T03:46:03;100916.88;;;2.11;100.00
10060;BME280;5069;49.306;8.636;2023-03-16T03:49:07;100914.31;;;2.10;100.00
10060;BME280;5069;49.306;8.636;2023-03-16T03:52:09;100906.47;;;2.05;100.00
10060;BME280;5069;49.306;8.636;2023-03-16T03:55:11;100910.63;;;1.89;100.00
10060;BME280;5069;49.306;8.636;2023-03-16T03:58:13;100905.47;;;1.92;100.00
10060;BME280;5069;49.306;8.636;2023-03-16T04:01:14;100890.75;;;1.96;100.00
10060;BME280;5069;49.306;8.636;2023-03-16T04:04:16;100885.56;;;1.96;100.00
10060;BME280;5069;49.306;8.636;2023-03-16T04:07:17;100889.00;;;1.95;100.00
10060;BME280;5069;49.306;8.636;2023-03-16T04:10:20;100883.84;;;1.98;100.00
10060;BME280;5069;49.306;8.636;2023-03-16T04:13:21;100887.28;;;1.95;100.00
10060;BME280;5069;49.306;8.636;2023-03-16T04:16:23;100894.28;;;2.02;100.00
10060;BME280;5069;49.306;8.636;2023-03-16T04:19:28;100887.41;;;2.07;100.00
10060;BME280;5069;49.306;8.636;2023-03-16T04:22:30;100896.00;;;2.00;100.00
10060;BME280;5069;49.306;8.636;2023-03-16T04:25:32;100891.63;;;1.96;100.00
10060;BME280;5069;49.306;8.636;2023-03-16T04:28:33;100892.50;;;1.97;100.00
10060;BME280;5069;49.306;8.636;2023-03-16T04:31:35;100891.63;;;1.96;100.00
10060;BME280;5069;49.306;8.636;2023-03-16T04:34:38;100898.59;;;1.97;100.00
10060;BME280;5069;49.306;8.636;2023-03-16T04:37:42;100893.31;;;1.91;100.00
10060;BME280;5069;49.306;8.636;2023-03-16T04:40:44;100889.84;;;1.88;100.00
10060;BME280;5069;49.306;8.636;2023-03-16T04:43:50;100889.88;;;1.95;100.00
10060;BME280;5069;49.306;8.636;2023-03-16T04:46:55;100892.50;;;1.97;100.00
10060;BME280;5069;49.306;8.636;2023-03-16T04:50:00;100894.25;;;2.01;100.00
10060;BME280;5069;49.306;8.636;2023-03-16T04:53:03;100885.63;;;2.03;100.00
10060;BME280;5069;49.306;8.636;2023-03-16T04:56:06;100883.03;;;2.03;100.00
10060;BME280;5069;49.306;8.636;2023-03-16T04:59:09;100886.50;;;2.05;100.00
10060;BME280;5069;49.306;8.636;2023-03-16T05:02:20;100879.63;;;2.11;100.00
10060;BME280;5069;49.306;8.636;2023-03-16T05:05:22;100883.09;;;2.13;100.00
10060;BME280;5069;49.306;8.636;2023-03-16T05:08:24;100880.47;;;2.11;100.00
10060;BME280;5069;49.306;8.636;2023-03-16T05:11:27;100873.56;;;2.10;100.00
10060;BME280;5069;49.306;8.636;2023-03-16T05:14:32;100878.72;;;2.07;100.00
10060;BME280;5069;49.306;8.636;2023-03-16T05:17:54;100876.97;;;2.04;100.00
10060;BME280;5069;49.306;8.636;2023-03-16T05:20:56;100873.41;;;1.93;100.00
10060;BME280;5069;49.306;8.636;2023-03-16T05:24:04;100880.41;;;2.00;100.00
10060;BME280;5069;49.306;8.636;2023-03-16T05:27:06;100876.09;;;2.02;100.00
10060;BME280;5069;49.306;8.636;2023-03-16T05:30:09;100869.25;;;2.11;100.00
10060;BME280;5069;49.306;8.636;2023-03-16T05:33:12;100866.63;;;2.11;100.00
10060;BME280;5069;49.306;8.636;2023-03-16T05:36:13;100862.28;;;2.10;100.00
10060;BME280;5069;49.306;8.636;2023-03-16T05:39:18;100857.84;;;1.98;100.00
10060;BME280;5069;49.306;8.636;2023-03-16T05:42:21;100857.84;;;1.99;100.00
10060;BME280;5069;49.306;8.636;2023-03-16T05:45:30;100858.72;;;1.98;100.00
10060;BME280;5069;49.306;8.636;2023-03-16T05:48:40;100860.53;;;2.08;100.00
10060;BME280;5069;49.306;8.636;2023-03-16T05:51:43;100857.09;;;2.10;100.00
10060;BME280;5069;49.306;8.636;2023-03-16T05:54:46;100861.41;;;2.07;100.00
10060;BME280;5069;49.306;8.636;2023-03-16T05:57:48;100850.19;;;2.15;100.00
10060;BME280;5069;49.306;8.636;2023-03-16T06:00:49;100850.16;;;2.12;100.00
10060;BME280;5069;49.306;8.636;2023-03-16T06:03:59;100848.41;;;2.07;100.00
10060;BME280;5069;49.306;8.636;2023-03-16T06:07:03;100847.59;;;2.15;100.00
10060;BME280;5069;49.306;8.636;2023-03-16T06:10:05;100843.34;;;2.26;100.00
10060;BME280;5069;49.306;8.636;2023-03-16T06:13:07;100841.59;;;2.25;100.00
10060;BME280;5069;49.306;8.636;2023-03-16T06:16:10;100837.22;;;2.22;100.00
10060;BME280;5069;49.306;8.636;2023-03-16T06:19:14;100836.38;;;2.25;100.00
10060;BME280;5069;49.306;8.636;2023-03-16T06:22:16;100839.00;;;2.29;100.00
10060;BME280;5069;49.306;8.636;2023-03-16T06:25:18;100839.84;;;2.24;100.00
10060;BME280;5069;49.306;8.636;2023-03-16T06:28:21;100848.53;;;2.26;100.00
10060;BME280;5069;49.306;8.636;2023-03-16T06:31:23;100837.31;;;2.34;100.00
10060;BME280;5069;49.306;8.636;2023-03-16T06:34:25;100843.44;;;2.38;100.00
10060;BME280;5069;49.306;8.636;2023-03-16T06:37:29;100847.78;;;2.39;100.00
10060;BME280;5069;49.306;8.636;2023-03-16T06:40:35;100845.19;;;2.42;100.00
10060;BME280;5069;49.306;8.636;2023-03-16T06:43:37;100851.28;;;2.48;100.00
10060;BME280;5069;49.306;8.636;2023-03-16T06:46:39;100854.78;;;2.51;100.00
10060;BME280;5069;49.306;8.636;2023-03-16T06:49:41;100844.38;;;2.54;100.00
10060;BME280;5069;49.306;8.636;2023-03-16T06:52:50;100842.69;;;2.60;100.00
10060;BME280;5069;49.306;8.636;2023-03-16T06:55:51;100851.38;;;2.61;100.00
10060;BME280;5069;49.306;8.636;2023-03-16T06:58:53;100855.72;;;2.63;100.00
10060;BME280;5069;49.306;8.636;2023-03-16T07:01:55;100854.91;;;2.72;100.00
10060;BME280;5069;49.306;8.636;2023-03-16T07:04:56;100861.91;;;2.79;100.00
10060;BME280;5069;49.306;8.636;2023-03-16T07:07:58;100854.09;;;2.86;100.00
10060;BME280;5069;49.306;8.636;2023-03-16T07:10:59;100860.25;;;2.96;100.00
10060;BME280;5069;49.306;8.636;2023-03-16T07:14:01;100859.41;;;3.02;100.00
10060;BME280;5069;49.306;8.636;2023-03-16T07:17:05;100857.66;;;3.04;100.00
10060;BME280;5069;49.306;8.636;2023-03-16T07:20:09;100860.31;;;3.14;100.00
10060;BME280;5069;49.306;8.636;2023-03-16T07:23:12;100853.34;;;3.10;100.00
10060;BME280;5069;49.306;8.636;2023-03-16T07:26:15;100859.44;;;3.11;100.00
10060;BME280;5069;49.306;8.636;2023-03-16T07:29:24;100862.03;;;3.11;100.00
10060;BME280;5069;49.306;8.636;2023-03-16T07:32:26;100864.66;;;3.12;100.00
10060;BME280;5069;49.306;8.636;2023-03-16T07:35:27;100866.44;;;3.31;100.00
10060;BME280;5069;49.306;8.636;2023-03-16T07:38:31;100865.63;;;3.40;100.00
10060;BME280;5069;49.306;8.636;2023-03-16T07:41:33;100863.03;;;3.55;100.00
10060;BME280;5069;49.306;8.636;2023-03-16T07:45:02;100863.91;;;3.59;100.00
10060;BME280;5069;49.306;8.636;2023-03-16T07:48:05;100870.03;;;3.62;100.00
10060;BME280;5069;49.306;8.636;2023-03-16T07:51:22;100880.47;;;3.74;100.00
10060;BME280;5069;49.306;8.636;2023-03-16T07:54:25;100875.25;;;3.74;100.00
10060;BME280;5069;49.306;8.636;2023-03-16T07:57:27;100875.28;;;3.94;100.00
10060;BME280;5069;49.306;8.636;2023-03-16T08:00:28;100865.72;;;4.02;100.00
10060;BME280;5069;49.306;8.636;2023-03-16T08:03:30;100870.94;;;4.22;100.00
10060;BME280;5069;49.306;8.636;2023-03-16T08:06:32;100864.84;;;4.23;100.00
10060;BME280;5069;49.306;8.636;2023-03-16T08:09:35;100853.53;;;4.35;100.00
10060;BME280;5069;49.306;8.636;2023-03-16T08:12:39;100847.41;;;4.60;100.00
10060;BME280;5069;49.306;8.636;2023-03-16T08:15:45;100843.91;;;4.66;100.00
10060;BME280;5069;49.306;8.636;2023-03-16T08:18:56;100842.97;;;4.91;98.68
10060;BME280;5069;49.306;8.636;2023-03-16T08:21:58;100842.03;;;5.12;95.11
10060;BME280;5069;49.306;8.636;2023-03-16T08:25:10;100845.50;;;5.18;95.07
10060;BME280;5069;49.306;8.636;2023-03-16T08:28:15;100843.63;;;5.35;94.31
10060;BME280;5069;49.306;8.636;2023-03-16T08:31:18;100838.31;;;5.54;93.91
10060;BME280;5069;49.306;8.636;2023-03-16T08:34:28;100840.88;;;5.58;92.91
10060;BME280;5069;49.306;8.636;2023-03-16T08:37:32;100843.38;;;5.78;93.04
10060;BME280;5069;49.306;8.636;2023-03-16T08:40:34;100851.19;;;5.92;90.26
10060;BME280;5069;49.306;8.636;2023-03-16T08:43:36;100843.41;;;5.72;91.46
10060;BME280;5069;49.306;8.636;2023-03-16T08:46:39;100846.81;;;5.92;91.60
10060;BME280;5069;49.306;8.636;2023-03-16T08:49:41;100839.78;;;5.97;89.43
10060;BME280;5069;49.306;8.636;2023-03-16T08:52:48;100831.72;;;6.25;89.30
10060;BME280;5069;49.306;8.636;2023-03-16T08:55:51;100819.34;;;6.39;88.01
10060;BME280;5069;49.306;8.636;2023-03-16T08:58:53;100818.28;;;6.58;85.06
10060;BME280;5069;49.306;8.636;2023-03-16T09:01:54;100817.28;;;6.68;82.80
10060;BME280;5069;49.306;8.636;2023-03-16T09:04:56;100813.94;;;6.55;82.82
10060;BME280;5069;49.306;8.636;2023-03-16T09:07:57;100815.66;;;6.58;84.45
10060;BME280;5069;49.306;8.636;2023-03-16T09:11:08;100815.31;;;6.88;81.72
10060;BME280;5069;49.306;8.636;2023-03-16T09:14:10;100818.53;;;7.12;80.53
10060;BME280;5069;49.306;8.636;2023-03-16T09:17:12;100818.41;;;7.22;79.48
10060;BME280;5069;49.306;8.636;2023-03-16T09:20:15;100824.38;;;7.32;80.20
10060;BME280;5069;49.306;8.636;2023-03-16T09:23:30;100817.09;;;7.52;77.66
10060;BME280;5069;49.306;8.636;2023-03-16T09:26:32;100811.44;;;7.79;76.00
10060;BME280;5069;49.306;8.636;2023-03-16T09:29:34;100807.16;;;7.74;76.32
10060;BME280;5069;49.306;8.636;2023-03-16T09:32:36;100810.06;;;8.09;75.46
10060;BME280;5069;49.306;8.636;2023-03-16T09:35:38;100821.28;;;8.19;73.84
10060;BME280;5069;49.306;8.636;2023-03-16T09:38:40;100819.59;;;8.15;73.19
10060;BME280;5069;49.306;8.636;2023-03-16T09:41:50;100815.88;;;8.31;73.24
10060;BME280;5069;49.306;8.636;2023-03-16T09:45:14;100823.03;;;8.20;73.09
10060;BME280;5069;49.306;8.636;2023-03-16T09:48:19;100817.00;;;8.13;73.23
10060;BME280;5069;49.306;8.636;2023-03-16T09:51:38;100807.91;;;8.34;73.88
10060;BME280;5069;49.306;8.636;2023-03-16T09:54:48;100808.66;;;8.42;71.24
10060;BME280;5069;49.306;8.636;2023-03-16T09:57:52;100803.03;;;8.60;71.63
10060;BME280;5069;49.306;8.636;2023-03-16T10:01:05;100787.94;;;8.71;72.21
10060;BME280;5069;49.306;8.636;2023-03-16T10:04:45;100781.84;;;8.69;71.18
10060;BME280;5069;49.306;8.636;2023-03-16T10:08:07;100773.91;;;8.73;71.89
10060;BME280;5069;49.306;8.636;2023-03-16T10:14:57;100780.06;;;9.13;69.19
10060;BME280;5069;49.306;8.636;2023-03-16T10:18:15;100773.31;;;9.40;66.80
10060;BME280;5069;49.306;8.636;2023-03-16T10:21:18;100768.38;;;9.63;67.19
10060;BME280;5069;49.306;8.636;2023-03-16T10:27:33;100756.41;;;9.87;65.71
10060;BME280;5069;49.306;8.636;2023-03-16T10:30:35;100752.03;;;9.86;67.03
10060;BME280;5069;49.306;8.636;2023-03-16T10:33:37;100761.38;;;9.99;66.09
10060;BME280;5069;49.306;8.636;2023-03-16T10:36:43;100770.09;;;10.01;64.81
10060;BME280;5069;49.306;8.636;2023-03-16T10:39:47;100762.56;;;10.21;63.91
10060;BME280;5069;49.306;8.636;2023-03-16T10:42:49;100763.72;;;10.44;63.27
10060;BME280;5069;49.306;8.636;2023-03-16T10:45:50;100762.09;;;10.40;62.80
10060;BME280;5069;49.306;8.636;2023-03-16T10:48:57;100759.09;;;10.53;62.68
10060;BME280;5069;49.306;8.636;2023-03-16T10:52:12;100766.75;;;10.61;62.27
10060;BME280;5069;49.306;8.636;2023-03-16T10:55:23;100760.47;;;10.66;62.07
10060;BME280;5069;49.306;8.636;2023-03-16T10:58:32;100757.00;;;10.95;60.52
10060;BME280;5069;49.306;8.636;2023-03-16T11:01:35;100760.72;;;10.88;60.34
10060;BME280;5069;49.306;8.636;2023-03-16T11:04:37;100748.34;;;10.90;60.85
10060;BME280;5069;49.306;8.636;2023-03-16T11:07:46;100742.63;;;10.76;61.17
10060;BME280;5069;49.306;8.636;2023-03-16T11:10:57;100736.88;;;10.62;61.02
10060;BME280;5069;49.306;8.636;2023-03-16T11:14:02;100724.00;;;10.82;61.21
10060;BME280;5069;49.306;8.636;2023-03-16T11:17:16;100727.78;;;11.31;61.37
10060;BME280;5069;49.306;8.636;2023-03-16T11:20:27;100714.50;;;11.60;59.54
10060;BME280;5069;49.306;8.636;2023-03-16T11:23:35;100716.25;;;11.61;59.13
10060;BME280;5069;49.306;8.636;2023-03-16T11:26:39;100718.25;;;11.53;58.93
10060;BME280;5069;49.306;8.636;2023-03-16T11:32:58;100722.19;;;11.40;59.18
10060;BME280;5069;49.306;8.636;2023-03-16T11:43:00;100700.47;;;11.58;59.19
10060;BME280;5069;49.306;8.636;2023-03-16T11:46:14;100687.78;;;11.69;58.48
10060;BME280;5069;49.306;8.636;2023-03-16T11:53:21;100680.75;;;12.21;57.18
10060;BME280;5069;49.306;8.636;2023-03-16T11:56:25;100684.91;;;12.28;56.82
10060;BME280;5069;49.306;8.636;2023-03-16T12:07:09;100671.41;;;12.11;55.13
10060;BME280;5069;49.306;8.636;2023-03-16T12:09:59;100669.44;;;12.17;54.46
10060;BME280;5069;49.306;8.636;2023-03-16T12:13:18;100662.44;;;12.39;55.99
10060;BME280;5069;49.306;8.636;2023-03-16T12:16:31;100660.44;;;12.69;55.51
10060;BME280;5069;49.306;8.636;2023-03-16T12:19:53;100654.97;;;12.74;53.75
10060;BME280;5069;49.306;8.636;2023-03-16T12:23:08;100645.13;;;12.77;53.81
10060;BME280;5069;49.306;8.636;2023-03-16T12:26:13;100649.41;;;12.58;52.83
10060;BME280;5069;49.306;8.636;2023-03-16T12:29:24;100644.03;;;13.05;53.86
10060;BME280;5069;49.306;8.636;2023-03-16T12:32:58;100651.84;;;13.31;51.30
10060;BME280;5069;49.306;8.636;2023-03-16T12:36:08;100644.19;;;13.45;51.65
10060;BME280;5069;49.306;8.636;2023-03-16T12:46:08;100620.75;;;13.56;49.46
10060;BME280;5069;49.306;8.636;2023-03-16T12:49:12;100626.84;;;13.79;48.99
10060;BME280;5069;49.306;8.636;2023-03-16T12:52:14;100620.25;;;13.69;48.71
10060;BME280;5069;49.306;8.636;2023-03-16T12:55:18;100619.97;;;13.54;49.27
10060;BME280;5069;49.306;8.636;2023-03-16T12:58:22;100603.72;;;13.42;49.96
10060;BME280;5069;49.306;8.636;2023-03-16T13:01:27;100609.25;;;13.57;48.23
10060;BME280;5069;49.306;8.636;2023-03-16T13:04:32;100592.69;;;13.52;49.10
10060;BME280;5069;49.306;8.636;2023-03-16T13:07:36;100593.34;;;13.57;49.01
10060;BME280;5069;49.306;8.636;2023-03-16T13:10:39;100588.25;;;13.53;48.28
10060;BME280;5069;49.306;8.636;2023-03-16T13:14:03;100584.53;;;13.57;47.97
10060;BME280;5069;49.306;8.636;2023-03-16T13:23:59;100576.94;;;14.47;45.83
10060;BME280;5069;49.306;8.636;2023-03-16T13:27:03;100570.88;;;14.45;45.43
10060;BME280;5069;49.306;8.636;2023-03-16T13:30:20;100568.41;;;14.41;45.35
10060;BME280;5069;49.306;8.636;2023-03-16T13:33:24;100573.25;;;14.52;44.74
10060;BME280;5069;49.306;8.636;2023-03-16T13:36:28;100565.84;;;14.39;44.91
10060;BME280;5069;49.306;8.636;2023-03-16T13:39:31;100562.13;;;14.43;45.52
10060;BME280;5069;49.306;8.636;2023-03-16T13:42:32;100563.56;;;14.69;45.49
10060;BME280;5069;49.306;8.636;2023-03-16T13:45:36;100556.34;;;14.90;44.35
10060;BME280;5069;49.306;8.636;2023-03-16T13:48:38;100553.97;;;14.84;44.72
10060;BME280;5069;49.306;8.636;2023-03-16T13:51:41;100545.75;;;14.71;44.09
10060;BME280;5069;49.306;8.636;2023-03-16T13:54:44;100537.50;;;14.59;44.81
10060;BME280;5069;49.306;8.636;2023-03-16T13:57:47;100527.06;;;14.56;43.45
10060;BME280;5069;49.306;8.636;2023-03-16T14:00:54;100509.19;;;14.59;43.99
10060;BME280;5069;49.306;8.636;2023-03-16T14:04:01;100517.53;;;14.52;43.78
10060;BME280;5069;49.306;8.636;2023-03-16T14:07:15;100515.47;;;14.19;44.18
10060;BME280;5069;49.306;8.636;2023-03-16T14:10:18;100511.19;;;14.35;44.09
10060;BME280;5069;49.306;8.636;2023-03-16T14:16:26;100502.59;;;14.30;44.00
10060;BME280;5069;49.306;8.636;2023-03-16T14:19:28;100508.44;;;14.38;43.65
10060;BME280;5069;49.306;8.636;2023-03-16T14:22:36;100491.19;;;14.47;43.14
10060;BME280;5069;49.306;8.636;2023-03-16T14:25:38;100488.72;;;14.44;43.28
10060;BME280;5069;49.306;8.636;2023-03-16T14:28:40;100497.44;;;14.27;43.95
10060;BME280;5069;49.306;8.636;2023-03-16T14:31:42;100497.00;;;14.36;43.80
10060;BME280;5069;49.306;8.636;2023-03-16T14:34:48;100499.00;;;14.31;43.99
10060;BME280;5069;49.306;8.636;2023-03-16T14:37:50;100494.31;;;14.38;44.35
10060;BME280;5069;49.306;8.636;2023-03-16T14:40:54;100493.69;;;14.31;43.83
10060;BME280;5069;49.306;8.636;2023-03-16T14:43:59;100491.44;;;14.42;43.50
10060;BME280;5069;49.306;8.636;2023-03-16T14:47:03;100486.00;;;14.45;43.69
10060;BME280;5069;49.306;8.636;2023-03-16T14:50:07;100477.72;;;14.33;43.19
10060;BME280;5069;49.306;8.636;2023-03-16T14:53:14;100482.09;;;14.15;43.27
10060;BME280;5069;49.306;8.636;2023-03-16T14:56:15;100473.78;;;14.04;43.68
10060;BME280;5069;49.306;8.636;2023-03-16T14:59:18;100468.34;;;14.07;43.72
10060;BME280;5069;49.306;8.636;2023-03-16T15:02:24;100468.78;;;13.98;43.65
10060;BME280;5069;49.306;8.636;2023-03-16T15:05:38;100461.53;;;14.01;43.32
10060;BME280;5069;49.306;8.636;2023-03-16T15:08:42;100471.78;;;14.09;42.75
10060;BME280;5069;49.306;8.636;2023-03-16T15:11:46;100474.50;;;14.07;42.59
10060;BME280;5069;49.306;8.636;2023-03-16T15:14:47;100462.19;;;14.06;42.74
10060;BME280;5069;49.306;8.636;2023-03-16T15:18:07;100470.72;;;13.94;42.33
10060;BME280;5069;49.306;8.636;2023-03-16T15:21:11;100461.81;;;13.95;42.73
10060;BME280;5069;49.306;8.636;2023-03-16T15:24:13;100469.69;;;13.97;43.41
10060;BME280;5069;49.306;8.636;2023-03-16T15:27:18;100464.34;;;13.98;43.10
10060;BME280;5069;49.306;8.636;2023-03-16T15:30:26;100458.44;;;13.92;43.21
10060;BME280;5069;49.306;8.636;2023-03-16T15:33:29;100456.59;;;13.94;43.12
10060;BME280;5069;49.306;8.636;2023-03-16T15:36:31;100450.13;;;13.81;43.60
10060;BME280;5069;49.306;8.636;2023-03-16T15:39:32;100459.22;;;13.75;43.17
10060;BME280;5069;49.306;8.636;2023-03-16T15:42:34;100436.38;;;13.73;43.54
10060;BME280;5069;49.306;8.636;2023-03-16T15:45:35;100448.41;;;13.61;43.18
10060;BME280;5069;49.306;8.636;2023-03-16T15:48:38;100438.66;;;13.61;43.51
10060;BME280;5069;49.306;8.636;2023-03-16T15:51:39;100436.16;;;13.58;43.13
10060;BME280;5069;49.306;8.636;2023-03-16T15:54:41;100425.13;;;13.68;43.81
10060;BME280;5069;49.306;8.636;2023-03-16T15:57:42;100431.00;;;13.74;43.65
10060;BME280;5069;49.306;8.636;2023-03-16T16:00:46;100427.00;;;13.65;43.88
10060;BME280;5069;49.306;8.636;2023-03-16T16:03:50;100427.78;;;13.68;44.19
10060;BME280;5069;49.306;8.636;2023-03-16T16:06:52;100413.13;;;13.60;43.67
10060;BME280;5069;49.306;8.636;2023-03-16T16:09:55;100418.09;;;13.48;44.16
10060;BME280;5069;49.306;8.636;2023-03-16T16:12:57;100411.13;;;13.27;44.46
10060;BME280;5069;49.306;8.636;2023-03-16T16:15:59;100410.13;;;13.29;44.38
10060;BME280;5069;49.306;8.636;2023-03-16T16:19:00;100409.03;;;13.33;44.23
10060;BME280;5069;49.306;8.636;2023-03-16T16:22:02;100410.97;;;13.30;44.45
10060;BME280;5069;49.306;8.636;2023-03-16T16:25:04;100398.72;;;13.27;43.68
10060;BME280;5069;49.306;8.636;2023-03-16T16:28:14;100401.25;;;13.10;44.10
10060;BME280;5069;49.306;8.636;2023-03-16T16:31:17;100395.53;;;12.99;44.72
10060;BME280;5069;49.306;8.636;2023-03-16T16:34:21;100393.25;;;12.91;44.21
10060;BME280;5069;49.306;8.636;2023-03-16T16:37:25;100401.63;;;13.01;44.45
10060;BME280;5069;49.306;8.636;2023-03-16T16:40:33;100405.22;;;12.79;44.04
10060;BME280;5069;49.306;8.636;2023-03-16T16:43:43;100407.19;;;12.74;44.42
10060;BME280;5069;49.306;8.636;2023-03-16T16:46:48;100407.19;;;12.74;44.51
10060;BME280;5069;49.306;8.636;2023-03-16T16:49:50;100407.44;;;12.68;44.78
10060;BME280;5069;49.306;8.636;2023-03-16T16:52:53;100407.31;;;12.71;45.56
10060;BME280;5069;49.306;8.636;2023-03-16T16:55:55;100395.41;;;12.61;44.69
10060;BME280;5069;49.306;8.636;2023-03-16T16:59:01;100401.34;;;12.46;45.47
10060;BME280;5069;49.306;8.636;2023-03-16T17:02:34;100394.63;;;12.37;45.31
10060;BME280;5069;49.306;8.636;2023-03-16T17:05:42;100387.94;;;12.29;46.17
10060;BME280;5069;49.306;8.636;2023-03-16T17:08:47;100394.25;;;12.25;45.86
10060;BME280;5069;49.306;8.636;2023-03-16T17:11:50;100398.63;;;12.26;45.81
10060;BME280;5069;49.306;8.636;2023-03-16T17:14:52;100392.63;;;12.22;45.52
10060;BME280;5069;49.306;8.636;2023-03-16T17:21:00;100390.75;;;12.02;45.92